createdAt,value
2018-12-09T00:00:17.732Z,0.60
2018-12-09T00:02:45.898Z,0.70
2018-12-09T00:05:14.049Z,0.60
2018-12-09T00:07:42.222Z,0.70
2018-12-09T00:10:10.616Z,0.68
2018-12-09T00:12:38.893Z,0.53
2018-12-09T00:15:07.215Z,0.72
2018-12-09T00:17:35.372Z,1.05
2018-12-09T00:20:04.019Z,0.72
2018-12-09T00:22:32.175Z,0.50
2018-12-09T00:25:00.321Z,0.60
2018-12-09T00:27:28.491Z,0.50
2018-12-09T00:29:56.673Z,0.53
2018-12-09T00:32:24.849Z,0.60
2018-12-09T00:34:52.990Z,0.70
2018-12-09T00:37:21.152Z,0.40
2018-12-09T00:39:49.386Z,0.50
2018-12-09T00:42:17.556Z,0.45
2018-12-09T00:44:45.712Z,0.60
2018-12-09T00:47:13.887Z,0.60
2018-12-09T00:49:42.170Z,0.53
2018-12-09T00:52:10.314Z,0.70
2018-12-09T00:54:38.480Z,0.60
2018-12-09T00:57:06.636Z,0.60
2018-12-09T00:59:34.963Z,0.60
2018-12-09T01:02:05.195Z,0.75
2018-12-09T01:04:33.410Z,0.90
2018-12-09T01:07:01.641Z,0.70
2018-12-09T01:09:29.881Z,0.60
2018-12-09T01:11:58.036Z,0.70
2018-12-09T01:14:26.214Z,0.80
2018-12-09T01:16:54.361Z,0.60
2018-12-09T01:19:22.621Z,0.80
2018-12-09T01:21:50.827Z,1.00
2018-12-09T01:24:19.005Z,0.70
2018-12-09T01:26:47.148Z,0.62
2018-12-09T01:29:15.441Z,0.50
2018-12-09T01:31:43.792Z,0.60
2018-12-09T01:34:11.961Z,0.60
2018-12-09T01:36:40.105Z,0.62
2018-12-09T01:39:08.344Z,0.60
2018-12-09T01:41:36.488Z,0.50
2018-12-09T01:44:04.649Z,0.30
2018-12-09T01:46:33.383Z,0.57
2018-12-09T01:49:01.666Z,0.50
2018-12-09T01:51:29.810Z,0.30
2018-12-09T01:54:08.885Z,0.28
2018-12-09T01:56:37.975Z,0.60
2018-12-09T01:59:06.317Z,0.50
2018-12-09T02:01:34.524Z,0.47
2018-12-09T02:04:02.689Z,0.60
2018-12-09T02:06:31.244Z,0.57
2018-12-09T02:08:59.545Z,0.60
2018-12-09T02:11:28.003Z,0.53
2018-12-09T02:13:56.238Z,0.50
2018-12-09T02:16:24.391Z,0.40
2018-12-09T02:19:14.420Z,0.50
2018-12-09T02:21:43.493Z,0.40
2018-12-09T02:24:11.799Z,0.47
2018-12-09T02:26:39.936Z,0.72
2018-12-09T02:29:08.464Z,0.53
2018-12-09T02:31:36.837Z,0.62
2018-12-09T02:34:05.199Z,0.60
2018-12-09T02:36:34.009Z,0.57
2018-12-09T02:39:02.343Z,0.53
2018-12-09T02:41:30.492Z,0.50
2018-12-09T02:43:58.733Z,0.40
2018-12-09T02:46:26.875Z,0.45
2018-12-09T02:48:55.105Z,0.60
2018-12-09T02:51:23.508Z,0.65
2018-12-09T02:53:51.764Z,0.55
2018-12-09T02:56:19.908Z,0.60
2018-12-09T02:58:48.110Z,0.50
2018-12-09T03:01:16.333Z,0.70
2018-12-09T03:03:44.633Z,0.70
2018-12-09T03:06:12.794Z,0.65
2018-12-09T03:08:41.083Z,0.60
2018-12-09T03:11:09.353Z,0.40
2018-12-09T03:13:37.529Z,0.57
2018-12-09T03:16:05.672Z,0.30
2018-12-09T03:18:33.918Z,0.50
2018-12-09T03:21:02.061Z,0.57
2018-12-09T03:23:30.229Z,0.45
2018-12-09T03:25:58.378Z,0.78
2018-12-09T03:28:26.808Z,0.80
2018-12-09T03:30:54.962Z,0.90
2018-12-09T03:33:23.538Z,1.15
2018-12-09T03:35:51.733Z,1.30
2018-12-09T03:38:20.126Z,1.10
2018-12-09T03:40:48.340Z,1.17
2018-12-09T03:43:16.505Z,1.60
2018-12-09T03:45:44.869Z,1.65
2018-12-09T03:48:13.145Z,1.77
2018-12-09T03:50:41.296Z,1.80
2018-12-09T03:53:09.441Z,1.52
2018-12-09T03:55:37.600Z,1.60
2018-12-09T03:58:05.812Z,1.98
2018-12-09T04:00:33.981Z,2.20
2018-12-09T04:03:02.130Z,1.25
2018-12-09T04:05:30.294Z,2.60
2018-12-09T04:07:58.565Z,2.20
2018-12-09T04:10:26.773Z,2.20
2018-12-09T04:12:54.915Z,2.40
2018-12-09T04:15:23.088Z,2.00
2018-12-09T04:17:51.498Z,2.10
2018-12-09T04:20:19.650Z,2.20
2018-12-09T04:22:47.832Z,2.27
2018-12-09T04:25:16.010Z,2.20
2018-12-09T04:27:44.616Z,1.70
2018-12-09T04:30:12.781Z,2.15
2018-12-09T04:32:41.576Z,1.60
2018-12-09T04:35:09.814Z,1.82
2018-12-09T04:37:38.232Z,1.90
2018-12-09T04:40:08.674Z,1.80
2018-12-09T04:42:36.624Z,1.22
2018-12-09T04:45:05.231Z,1.30
2018-12-09T04:47:33.497Z,1.30
2018-12-09T04:50:01.657Z,1.30
2018-12-09T04:52:29.796Z,1.00
2018-12-09T04:54:57.968Z,1.30
2018-12-09T04:57:26.284Z,0.80
2018-12-09T05:00:02.301Z,1.10
2018-12-09T05:02:30.453Z,1.32
2018-12-09T05:04:58.620Z,1.00
2018-12-09T05:07:26.878Z,1.07
2018-12-09T05:09:55.055Z,1.35
2018-12-09T05:12:23.235Z,0.98
2018-12-09T05:14:51.505Z,0.82
2018-12-09T05:17:19.773Z,1.25
2018-12-09T05:19:47.942Z,0.80
2018-12-09T05:22:16.084Z,1.10
2018-12-09T05:24:44.265Z,1.10
2018-12-09T05:27:12.467Z,1.20
2018-12-09T05:29:40.634Z,1.20
2018-12-09T05:32:08.781Z,1.60
2018-12-09T05:34:36.956Z,1.12
2018-12-09T05:37:05.170Z,1.70
2018-12-09T05:39:33.403Z,1.80
2018-12-09T05:42:01.998Z,1.30
2018-12-09T05:44:30.165Z,1.82
2018-12-09T05:46:58.379Z,0.98
2018-12-09T05:49:26.551Z,0.42
2018-12-09T05:51:54.721Z,0.33
2018-12-09T05:54:23.385Z,0.50
2018-12-09T05:56:51.609Z,0.33
2018-12-09T05:59:19.757Z,0.40
2018-12-09T06:01:47.920Z,0.37
2018-12-09T06:04:16.071Z,0.33
2018-12-09T06:06:44.704Z,0.40
2018-12-09T06:09:12.869Z,0.40
2018-12-09T06:11:41.035Z,0.20
2018-12-09T06:14:09.183Z,0.23
2018-12-09T06:16:37.481Z,0.25
2018-12-09T06:19:05.741Z,0.40
2018-12-09T06:21:33.900Z,0.47
2018-12-09T06:24:02.051Z,0.20
2018-12-09T06:26:30.308Z,0.30
2018-12-09T06:28:58.465Z,0.20
2018-12-09T06:31:26.626Z,0.40
2018-12-09T06:33:54.777Z,0.42
2018-12-09T06:36:23.009Z,0.60
2018-12-09T06:38:51.157Z,0.95
2018-12-09T06:41:19.338Z,0.90
2018-12-09T06:43:47.483Z,0.50
2018-12-09T06:46:15.734Z,0.50
2018-12-09T06:48:43.886Z,0.70
2018-12-09T06:51:12.053Z,0.70
2018-12-09T06:53:40.224Z,0.80
2018-12-09T06:56:08.614Z,0.70
2018-12-09T06:58:36.773Z,0.72
2018-12-09T07:01:05.019Z,1.02
2018-12-09T07:03:33.290Z,1.00
2018-12-09T07:06:01.540Z,1.70
2018-12-09T07:08:30.018Z,2.00
2018-12-09T07:10:58.291Z,2.25
2018-12-09T07:13:26.432Z,1.40
2018-12-09T07:15:54.708Z,1.37
2018-12-09T07:18:22.853Z,1.42
2018-12-09T07:20:51.435Z,1.72
2018-12-09T07:23:19.589Z,1.32
2018-12-09T07:25:49.048Z,1.45
2018-12-09T07:28:17.200Z,1.50
2018-12-09T07:30:45.376Z,1.65
2018-12-09T07:33:13.933Z,1.85
2018-12-09T07:35:42.152Z,1.47
2018-12-09T07:38:10.305Z,1.47
2018-12-09T07:40:38.481Z,1.32
2018-12-09T07:43:06.633Z,1.37
2018-12-09T07:45:35.477Z,1.57
2018-12-09T07:48:03.672Z,1.87
2018-12-09T07:50:31.908Z,1.57
2018-12-09T07:53:00.058Z,1.10
2018-12-09T07:55:28.312Z,1.00
2018-12-09T07:57:56.753Z,1.10
2018-12-09T08:00:25.117Z,1.20
2018-12-09T08:02:53.321Z,0.90
2018-12-09T08:05:21.671Z,0.78
2018-12-09T08:07:49.846Z,0.93
2018-12-09T08:10:17.992Z,1.12
2018-12-09T08:12:46.157Z,1.00
2018-12-09T08:15:14.356Z,0.90
2018-12-09T08:17:42.529Z,1.00
2018-12-09T08:20:10.676Z,1.07
2018-12-09T08:22:38.840Z,0.78
2018-12-09T08:25:07.053Z,1.30
2018-12-09T08:27:35.215Z,1.40
2018-12-09T08:30:03.711Z,1.07
2018-12-09T08:32:31.872Z,1.10
2018-12-09T08:35:00.068Z,1.12
2018-12-09T08:37:28.234Z,1.12
2018-12-09T08:39:56.376Z,1.45
2018-12-09T08:42:24.540Z,1.10
2018-12-09T08:44:53.001Z,1.30
2018-12-09T08:47:21.161Z,1.45
2018-12-09T08:49:49.314Z,1.20
2018-12-09T08:52:17.486Z,1.27
2018-12-09T08:54:45.854Z,1.40
2018-12-09T08:57:14.025Z,1.37
2018-12-09T08:59:42.172Z,1.20
2018-12-09T09:02:10.335Z,1.30
2018-12-09T09:04:38.733Z,1.20
2018-12-09T09:07:06.905Z,1.50
2018-12-09T09:09:35.048Z,1.80
2018-12-09T09:12:03.330Z,1.30
2018-12-09T09:14:31.671Z,1.25
2018-12-09T09:16:59.837Z,1.50
2018-12-09T09:19:27.984Z,1.77
2018-12-09T09:21:56.275Z,1.50
2018-12-09T09:24:24.575Z,2.05
2018-12-09T09:26:52.755Z,1.72
2018-12-09T09:29:20.897Z,1.70
2018-12-09T09:31:49.064Z,1.52
2018-12-09T09:34:17.263Z,1.50
2018-12-09T09:36:45.428Z,1.50
2018-12-09T09:39:13.576Z,1.50
2018-12-09T09:41:41.764Z,1.60
2018-12-09T09:44:10.109Z,1.52
2018-12-09T09:46:38.360Z,1.92
2018-12-09T09:49:06.497Z,1.72
2018-12-09T09:51:34.675Z,1.62
2018-12-09T09:54:03.065Z,1.60
2018-12-09T09:56:31.243Z,1.62
2018-12-09T09:58:59.372Z,2.50
2018-12-09T10:01:27.516Z,2.17
2018-12-09T10:03:57.322Z,1.82
2018-12-09T10:06:25.738Z,1.50
2018-12-09T10:08:53.904Z,2.20
2018-12-09T10:11:22.125Z,2.12
2018-12-09T10:13:50.401Z,2.00
2018-12-09T10:16:18.541Z,2.08
2018-12-09T10:18:46.718Z,2.22
2018-12-09T10:21:14.856Z,1.82
2018-12-09T10:23:44.812Z,1.85
2018-12-09T10:26:12.975Z,2.45
2018-12-09T10:28:41.136Z,1.87
2018-12-09T10:31:09.287Z,2.40
2018-12-09T10:33:37.556Z,1.98
2018-12-09T10:36:05.761Z,2.72
2018-12-09T10:38:33.925Z,2.50
2018-12-09T10:41:02.077Z,2.50
2018-12-09T10:43:30.634Z,3.35
2018-12-09T10:45:58.772Z,2.50
2018-12-09T10:48:26.944Z,3.33
2018-12-09T10:50:55.089Z,2.50
2018-12-09T10:53:23.252Z,3.00
2018-12-09T10:55:51.401Z,2.65
2018-12-09T10:58:19.563Z,3.50
2018-12-09T11:00:52.004Z,2.70
2018-12-09T11:03:20.296Z,2.37
2018-12-09T11:05:48.433Z,2.80
2018-12-09T11:08:16.801Z,2.45
2018-12-09T11:10:45.101Z,2.40
2018-12-09T11:13:13.301Z,2.83
2018-12-09T11:15:41.452Z,2.20
2018-12-09T11:18:09.621Z,2.60
2018-12-09T11:20:37.764Z,2.30
2018-12-09T11:23:05.984Z,2.37
2018-12-09T11:25:34.129Z,2.58
2018-12-09T11:28:02.316Z,2.50
2018-12-09T11:30:30.481Z,2.80
2018-12-09T11:32:58.699Z,2.90
2018-12-09T11:35:26.846Z,3.05
2018-12-09T11:37:55.021Z,2.87
2018-12-09T11:40:23.191Z,2.92
2018-12-09T11:42:51.440Z,2.30
2018-12-09T11:45:19.632Z,3.50
2018-12-09T11:47:48.200Z,3.35
2018-12-09T11:50:16.363Z,3.08
2018-12-09T11:52:44.666Z,3.47
2018-12-09T11:55:12.918Z,2.87
2018-12-09T11:57:41.097Z,3.15
2018-12-09T12:00:11.896Z,3.00
2018-12-09T12:02:40.167Z,3.42
2018-12-09T12:05:08.403Z,3.45
2018-12-09T12:07:36.558Z,3.60
2018-12-09T12:10:06.160Z,3.02
2018-12-09T12:12:34.359Z,3.15
2018-12-09T12:15:02.608Z,3.37
2018-12-09T12:17:30.761Z,3.08
2018-12-09T12:19:58.933Z,3.10
2018-12-09T12:22:27.237Z,3.00
2018-12-09T12:24:55.452Z,3.45
2018-12-09T12:27:23.689Z,3.22
2018-12-09T12:29:51.861Z,3.55
2018-12-09T12:32:20.046Z,3.20
2018-12-09T12:34:48.221Z,3.22
2018-12-09T12:37:16.379Z,3.42
2018-12-09T12:39:44.549Z,2.62
2018-12-09T12:42:13.016Z,2.50
2018-12-09T12:44:41.205Z,2.62
2018-12-09T12:47:09.354Z,2.42
2018-12-09T12:49:37.528Z,2.85
2018-12-09T12:52:05.740Z,2.60
2018-12-09T12:54:33.928Z,2.25
2018-12-09T12:57:02.140Z,3.35
2018-12-09T12:59:30.312Z,3.55
2018-12-09T13:01:58.636Z,3.50
2018-12-09T13:04:26.816Z,2.65
2018-12-09T13:06:55.073Z,2.72
2018-12-09T13:09:23.240Z,2.90
2018-12-09T13:11:51.448Z,2.50
2018-12-09T13:14:19.712Z,2.60
2018-12-09T13:16:47.901Z,2.30
2018-12-09T13:19:16.789Z,2.22
2018-12-09T13:21:45.063Z,2.12
2018-12-09T13:24:13.225Z,1.60
2018-12-09T13:26:41.372Z,2.10
2018-12-09T13:29:09.549Z,1.80
2018-12-09T13:31:37.749Z,1.80
2018-12-09T13:34:05.920Z,2.42
2018-12-09T13:36:34.071Z,2.30
2018-12-09T13:39:02.245Z,2.08
2018-12-09T13:41:30.445Z,2.00
2018-12-09T13:43:58.621Z,1.65
2018-12-09T13:46:26.766Z,1.67
2018-12-09T13:48:54.934Z,2.05
2018-12-09T13:51:23.141Z,1.77
2018-12-09T13:53:51.299Z,1.85
2018-12-09T13:56:19.524Z,1.60
2018-12-09T13:58:47.697Z,1.75
2018-12-09T14:01:16.903Z,1.75
2018-12-09T14:03:45.076Z,1.60
2018-12-09T14:06:13.222Z,1.40
2018-12-09T14:08:41.405Z,1.50
2018-12-09T14:11:09.665Z,1.27
2018-12-09T14:13:37.821Z,1.17
2018-12-09T14:16:05.996Z,1.30
2018-12-09T14:18:34.257Z,1.50
2018-12-09T14:21:02.682Z,1.30
2018-12-09T14:23:30.826Z,1.27
2018-12-09T14:25:59.173Z,1.40
2018-12-09T14:28:27.321Z,1.35
2018-12-09T14:30:55.601Z,1.40
2018-12-09T14:33:23.739Z,1.60
2018-12-09T14:35:51.977Z,1.60
2018-12-09T14:38:20.122Z,1.30
2018-12-09T14:40:48.345Z,1.40
2018-12-09T14:43:16.500Z,1.60
2018-12-09T14:45:48.883Z,1.30
2018-12-09T14:48:14.827Z,1.40
2018-12-09T14:50:43.137Z,1.30
2018-12-09T14:53:11.282Z,1.40
2018-12-09T14:55:39.449Z,1.55
2018-12-09T14:58:07.589Z,1.67
2018-12-09T15:00:35.901Z,1.30
2018-12-09T15:03:04.052Z,1.30
2018-12-09T15:05:32.221Z,1.37
2018-12-09T15:08:00.365Z,1.37
2018-12-09T15:10:28.625Z,1.20
2018-12-09T15:12:56.923Z,1.35
2018-12-09T15:15:25.085Z,1.20
2018-12-09T15:17:53.233Z,1.25
2018-12-09T15:20:21.528Z,1.50
2018-12-09T15:22:49.685Z,1.10
2018-12-09T15:25:17.862Z,2.22
2018-12-09T15:27:46.013Z,1.40
2018-12-09T15:30:14.219Z,1.50
2018-12-09T15:32:42.364Z,0.93
2018-12-09T15:35:10.536Z,1.40
2018-12-09T15:37:38.680Z,1.07
2018-12-09T15:40:07.004Z,1.00
2018-12-09T15:42:35.149Z,1.10
2018-12-09T15:45:03.394Z,1.25
2018-12-09T15:47:31.538Z,1.00
2018-12-09T15:49:59.814Z,1.10
2018-12-09T15:52:27.995Z,1.00
2018-12-09T15:54:56.241Z,0.90
2018-12-09T15:57:24.387Z,1.00
2018-12-09T15:59:52.609Z,1.17
2018-12-09T16:02:20.748Z,1.00
2018-12-09T16:04:48.922Z,1.00
2018-12-09T16:07:17.074Z,1.10
2018-12-09T16:09:45.303Z,1.35
2018-12-09T16:12:14.235Z,1.07
2018-12-09T16:14:42.540Z,1.25
2018-12-09T16:17:10.684Z,1.42
2018-12-09T16:19:38.932Z,1.72
2018-12-09T16:22:07.081Z,1.27
2018-12-09T16:24:35.245Z,2.37
2018-12-09T16:27:03.397Z,2.12
2018-12-09T16:29:31.565Z,2.33
2018-12-09T16:31:59.704Z,2.17
2018-12-09T16:34:27.993Z,2.60
2018-12-09T16:36:56.146Z,2.05
2018-12-09T16:39:24.314Z,1.42
2018-12-09T16:41:52.461Z,1.70
2018-12-09T16:44:20.634Z,1.62
2018-12-09T16:46:48.776Z,1.67
2018-12-09T16:49:16.953Z,1.17
2018-12-09T16:51:45.097Z,1.12
2018-12-09T16:54:13.273Z,1.17
2018-12-09T16:56:41.414Z,1.50
2018-12-09T16:59:09.587Z,1.40
2018-12-09T17:01:37.732Z,1.40
2018-12-09T17:04:05.921Z,1.02
2018-12-09T17:06:34.056Z,1.00
2018-12-09T17:09:02.232Z,1.20
2018-12-09T17:11:30.381Z,0.90
2018-12-09T17:13:58.544Z,1.60
2018-12-09T17:16:26.699Z,1.20
2018-12-09T17:18:54.872Z,1.20
2018-12-09T17:21:23.147Z,1.30
2018-12-09T17:23:51.495Z,1.10
2018-12-09T17:26:19.642Z,1.02
2018-12-09T17:28:47.810Z,1.50
2018-12-09T17:31:15.946Z,1.50
2018-12-09T17:33:44.121Z,1.20
2018-12-09T17:36:12.341Z,1.40
2018-12-09T17:38:40.508Z,0.90
2018-12-09T17:41:08.650Z,1.10
2018-12-09T17:43:36.820Z,1.10
2018-12-09T17:46:05.005Z,1.40
2018-12-09T17:48:33.267Z,1.10
2018-12-09T17:51:02.912Z,2.05
2018-12-09T17:53:31.080Z,1.98
2018-12-09T17:55:59.441Z,1.00
2018-12-09T17:58:27.617Z,1.40
2018-12-09T18:00:55.771Z,1.17
2018-12-09T18:03:23.947Z,1.10
2018-12-09T18:05:52.340Z,1.10
2018-12-09T18:08:20.531Z,1.12
2018-12-09T18:10:48.683Z,1.98
2018-12-09T18:13:16.831Z,1.77
2018-12-09T18:15:47.285Z,2.30
2018-12-09T18:18:15.429Z,2.20
2018-12-09T18:20:43.595Z,1.50
2018-12-09T18:23:11.754Z,1.80
2018-12-09T18:25:40.077Z,1.70
2018-12-09T18:28:08.224Z,2.00
2018-12-09T18:30:36.536Z,1.60
2018-12-09T18:33:04.683Z,1.80
2018-12-09T18:35:33.123Z,1.27
2018-12-09T18:38:01.744Z,1.20
2018-12-09T18:40:30.142Z,1.12
2018-12-09T18:42:58.339Z,1.77
2018-12-09T18:45:26.752Z,1.60
2018-12-09T18:47:54.900Z,1.05
2018-12-09T18:50:23.073Z,1.10
2018-12-09T18:52:51.223Z,1.10
2018-12-09T18:55:19.549Z,1.05
2018-12-09T18:57:47.696Z,1.12
2018-12-09T19:00:15.865Z,1.25
2018-12-09T19:02:44.023Z,1.30
2018-12-09T19:05:12.909Z,1.30
2018-12-09T19:07:41.201Z,1.10
2018-12-09T19:10:09.379Z,1.20
2018-12-09T19:12:37.524Z,1.12
2018-12-09T19:15:05.916Z,1.40
2018-12-09T19:17:34.067Z,1.90
2018-12-09T19:20:02.252Z,1.80
2018-12-09T19:22:30.397Z,1.85
2018-12-09T19:24:58.656Z,1.30
2018-12-09T19:27:26.805Z,1.20
2018-12-09T19:29:54.982Z,1.30
2018-12-09T19:32:23.130Z,1.60
2018-12-09T19:34:51.452Z,1.60
2018-12-09T19:37:19.609Z,1.40
2018-12-09T19:39:47.780Z,1.40
2018-12-09T19:42:15.933Z,1.50
2018-12-09T19:44:44.136Z,1.10
2018-12-09T19:47:12.285Z,1.20
2018-12-09T19:49:40.464Z,0.70
2018-12-09T19:52:08.617Z,1.10
2018-12-09T19:54:36.945Z,1.10
2018-12-09T19:57:05.101Z,1.00
2018-12-09T19:59:33.271Z,0.98
2018-12-09T20:02:01.432Z,0.90
2018-12-09T20:04:29.802Z,0.90
2018-12-09T20:06:57.944Z,1.20
2018-12-09T20:09:26.097Z,0.90
2018-12-09T20:11:54.269Z,1.00
2018-12-09T20:14:22.512Z,1.20
2018-12-09T20:16:50.684Z,0.98
2018-12-09T20:19:19.041Z,1.05
2018-12-09T20:21:47.216Z,0.62
2018-12-09T20:24:15.375Z,0.90
2018-12-09T20:26:43.541Z,0.62
2018-12-09T20:29:11.713Z,0.90
2018-12-09T20:31:39.881Z,0.95
2018-12-09T20:34:08.104Z,1.02
2018-12-09T20:36:36.273Z,0.98
2018-12-09T20:39:05.672Z,1.47
2018-12-09T20:41:33.852Z,1.00
2018-12-09T20:44:02.045Z,1.02
2018-12-09T20:46:30.215Z,1.10
2018-12-09T20:48:58.374Z,1.00
2018-12-09T20:51:26.549Z,1.05
2018-12-09T20:53:54.854Z,1.10
2018-12-09T20:56:23.097Z,1.30
2018-12-09T20:58:51.235Z,1.15
2018-12-09T21:01:19.442Z,1.15
2018-12-09T21:03:47.630Z,1.40
2018-12-09T21:06:15.791Z,1.30
2018-12-09T21:08:43.945Z,1.35
2018-12-09T21:11:12.126Z,1.40
2018-12-09T21:13:40.486Z,1.30
2018-12-09T21:16:08.662Z,1.30
2018-12-09T21:18:36.804Z,1.00
2018-12-09T21:21:05.058Z,1.12
2018-12-09T21:23:33.438Z,0.95
2018-12-09T21:26:01.600Z,0.90
2018-12-09T21:28:29.753Z,1.02
2018-12-09T21:30:57.923Z,0.90
2018-12-09T21:33:26.336Z,1.00
2018-12-09T21:35:54.504Z,0.80
2018-12-09T21:38:22.650Z,0.90
2018-12-09T21:40:51.706Z,1.00
2018-12-09T21:43:19.966Z,0.93
2018-12-09T21:45:48.157Z,1.07
2018-12-09T21:48:16.301Z,0.90
2018-12-09T21:50:44.475Z,1.00
2018-12-09T21:53:12.752Z,0.80
2018-12-09T21:55:41.069Z,0.90
2018-12-09T21:58:09.223Z,1.05
2018-12-09T22:00:37.369Z,1.10
2018-12-09T22:03:05.585Z,1.10
2018-12-09T22:05:33.739Z,1.20
2018-12-09T22:08:01.917Z,1.20
2018-12-09T22:10:30.066Z,1.20
2018-12-09T22:12:58.452Z,1.00
2018-12-09T22:15:26.604Z,1.20
2018-12-09T22:17:54.783Z,0.90
2018-12-09T22:20:22.933Z,1.10
2018-12-09T22:22:52.597Z,1.20
2018-12-09T22:25:20.749Z,1.00
2018-12-09T22:27:48.921Z,0.90
2018-12-09T22:30:17.060Z,1.22
2018-12-09T22:32:45.509Z,1.10
2018-12-09T22:35:13.770Z,1.30
2018-12-09T22:37:41.947Z,1.10
2018-12-09T22:40:10.088Z,1.42
2018-12-09T22:42:38.310Z,1.40
2018-12-09T22:45:06.706Z,1.25
2018-12-09T22:47:34.876Z,1.20
2018-12-09T22:50:03.124Z,1.20
2018-12-09T22:52:31.412Z,1.10
2018-12-09T22:54:59.690Z,1.20
2018-12-09T22:57:27.926Z,1.32
2018-12-09T22:59:56.077Z,1.10
2018-12-09T23:02:30.097Z,1.60
2018-12-09T23:04:58.236Z,1.20
2018-12-09T23:07:32.247Z,1.00
2018-12-09T23:10:00.391Z,1.12
2018-12-09T23:12:28.673Z,1.20
2018-12-09T23:14:56.812Z,1.40
2018-12-09T23:17:24.982Z,1.32
2018-12-09T23:19:53.120Z,1.37
2018-12-09T23:22:24.545Z,1.30
2018-12-09T23:24:52.708Z,1.10
2018-12-09T23:27:20.872Z,1.30
2018-12-09T23:29:49.025Z,1.45
2018-12-09T23:32:17.356Z,1.40
2018-12-09T23:34:45.496Z,1.50
2018-12-09T23:37:13.661Z,1.22
2018-12-09T23:39:41.813Z,1.00
2018-12-09T23:42:10.688Z,1.30
2018-12-09T23:44:38.832Z,1.00
2018-12-09T23:47:07.005Z,1.15
2018-12-09T23:49:35.155Z,1.62
2018-12-09T23:52:03.422Z,1.40
2018-12-09T23:54:31.561Z,1.40
2018-12-09T23:56:59.729Z,1.07
2018-12-09T23:59:27.941Z,1.20
